sensor_id;sensor_type;location;lat;lon;timestamp;temperature;humidity
10062;DHT22;5070;52.382;5.270;2023-06-05T00:01:13;22.80;61.70
10062;DHT22;5070;52.382;5.270;2023-06-05T00:03:40;22.80;61.60
10062;DHT22;5070;52.382;5.270;2023-06-05T00:06:11;22.80;61.80
10062;DHT22;5070;52.382;5.270;2023-06-05T00:08:39;22.80;61.70
10062;DHT22;5070;52.382;5.270;2023-06-05T00:11:07;22.80;61.60
10062;DHT22;5070;52.382;5.270;2023-06-05T00:13:35;22.80;61.60
10062;DHT22;5070;52.382;5.270;2023-06-05T00:16:07;22.70;61.50
10062;DHT22;5070;52.382;5.270;2023-06-05T00:18:35;22.80;61.50
10062;DHT22;5070;52.382;5.270;2023-06-05T00:21:03;22.70;61.50
10062;DHT22;5070;52.382;5.270;2023-06-05T00:23:31;22.70;61.30
10062;DHT22;5070;52.382;5.270;2023-06-05T00:26:00;22.70;61.30
10062;DHT22;5070;52.382;5.270;2023-06-05T00:28:28;22.70;61.50
10062;DHT22;5070;52.382;5.270;2023-06-05T00:53:15;22.60;61.40
10062;DHT22;5070;52.382;5.270;2023-06-05T00:55:45;22.60;61.30
10062;DHT22;5070;52.382;5.270;2023-06-05T00:58:14;22.60;61.40
10062;DHT22;5070;52.382;5.270;2023-06-05T01:00:43;22.60;61.20
10062;DHT22;5070;52.382;5.270;2023-06-05T01:03:12;22.60;61.20
10062;DHT22;5070;52.382;5.270;2023-06-05T01:05:40;22.60;61.10
10062;DHT22;5070;52.382;5.270;2023-06-05T01:08:10;22.60;61.10
10062;DHT22;5070;52.382;5.270;2023-06-05T01:10:42;22.60;61.10
10062;DHT22;5070;52.382;5.270;2023-06-05T01:13:14;22.50;60.90
10062;DHT22;5070;52.382;5.270;2023-06-05T01:15:46;22.50;60.90
10062;DHT22;5070;52.382;5.270;2023-06-05T01:18:19;22.50;60.90
10062;DHT22;5070;52.382;5.270;2023-06-05T01:20:49;22.50;60.90
10062;DHT22;5070;52.382;5.270;2023-06-05T01:23:19;22.50;60.90
10062;DHT22;5070;52.382;5.270;2023-06-05T01:25:52;22.50;60.80
10062;DHT22;5070;52.382;5.270;2023-06-05T01:28:24;22.50;60.80
10062;DHT22;5070;52.382;5.270;2023-06-05T01:30:57;22.50;60.70
10062;DHT22;5070;52.382;5.270;2023-06-05T01:33:31;22.50;60.80
10062;DHT22;5070;52.382;5.270;2023-06-05T01:36:03;22.50;60.80
10062;DHT22;5070;52.382;5.270;2023-06-05T01:38:34;22.50;60.70
10062;DHT22;5070;52.382;5.270;2023-06-05T01:41:03;22.50;60.60
10062;DHT22;5070;52.382;5.270;2023-06-05T01:43:32;22.50;60.70
10062;DHT22;5070;52.382;5.270;2023-06-05T01:46:07;22.50;60.60
10062;DHT22;5070;52.382;5.270;2023-06-05T01:48:37;22.50;60.60
10062;DHT22;5070;52.382;5.270;2023-06-05T01:51:06;22.50;60.50
10062;DHT22;5070;52.382;5.270;2023-06-05T01:53:36;22.50;60.60
10062;DHT22;5070;52.382;5.270;2023-06-05T01:56:05;22.40;60.40
10062;DHT22;5070;52.382;5.270;2023-06-05T01:58:35;22.40;60.40
10062;DHT22;5070;52.382;5.270;2023-06-05T02:01:03;22.40;60.30
10062;DHT22;5070;52.382;5.270;2023-06-05T02:03:32;22.40;60.30
10062;DHT22;5070;52.382;5.270;2023-06-05T02:06:01;22.40;60.40
10062;DHT22;5070;52.382;5.270;2023-06-05T02:08:58;22.40;60.30
10062;DHT22;5070;52.382;5.270;2023-06-05T02:11:28;22.40;60.20
10062;DHT22;5070;52.382;5.270;2023-06-05T02:13:57;22.40;60.30
10062;DHT22;5070;52.382;5.270;2023-06-05T02:16:27;22.40;60.20
10062;DHT22;5070;52.382;5.270;2023-06-05T02:18:57;22.40;60.20
10062;DHT22;5070;52.382;5.270;2023-06-05T02:21:27;22.40;60.20
10062;DHT22;5070;52.382;5.270;2023-06-05T02:23:55;22.40;60.20
10062;DHT22;5070;52.382;5.270;2023-06-05T02:26:26;22.30;60.20
10062;DHT22;5070;52.382;5.270;2023-06-05T02:28:56;22.30;60.10
10062;DHT22;5070;52.382;5.270;2023-06-05T02:31:24;22.30;60.00
10062;DHT22;5070;52.382;5.270;2023-06-05T02:33:55;22.30;60.00
10062;DHT22;5070;52.382;5.270;2023-06-05T02:36:26;22.30;60.00
10062;DHT22;5070;52.382;5.270;2023-06-05T02:38:54;22.30;60.00
10062;DHT22;5070;52.382;5.270;2023-06-05T02:41:22;22.30;60.00
10062;DHT22;5070;52.382;5.270;2023-06-05T02:43:53;22.30;60.00
10062;DHT22;5070;52.382;5.270;2023-06-05T02:46:21;22.30;59.90
10062;DHT22;5070;52.382;5.270;2023-06-05T02:48:51;22.30;60.00
10062;DHT22;5070;52.382;5.270;2023-06-05T02:51:19;22.30;60.00
10062;DHT22;5070;52.382;5.270;2023-06-05T02:53:47;22.20;59.90
10062;DHT22;5070;52.382;5.270;2023-06-05T02:56:17;22.20;59.90
10062;DHT22;5070;52.382;5.270;2023-06-05T02:58:45;22.20;59.90
10062;DHT22;5070;52.382;5.270;2023-06-05T03:01:15;22.20;59.90
10062;DHT22;5070;52.382;5.270;2023-06-05T03:03:45;22.20;59.80
10062;DHT22;5070;52.382;5.270;2023-06-05T03:06:16;22.20;59.80
10062;DHT22;5070;52.382;5.270;2023-06-05T03:08:48;22.20;59.80
10062;DHT22;5070;52.382;5.270;2023-06-05T03:11:19;22.20;59.80
10062;DHT22;5070;52.382;5.270;2023-06-05T03:13:48;22.20;59.80
10062;DHT22;5070;52.382;5.270;2023-06-05T03:16:18;22.20;59.80
10062;DHT22;5070;52.382;5.270;2023-06-05T03:18:50;22.20;59.70
10062;DHT22;5070;52.382;5.270;2023-06-05T03:21:19;22.20;59.80
10062;DHT22;5070;52.382;5.270;2023-06-05T03:24:13;22.20;59.80
10062;DHT22;5070;52.382;5.270;2023-06-05T03:26:47;22.20;59.70
10062;DHT22;5070;52.382;5.270;2023-06-05T03:29:15;22.10;59.60
10062;DHT22;5070;52.382;5.270;2023-06-05T03:31:44;22.10;59.70
10062;DHT22;5070;52.382;5.270;2023-06-05T03:34:12;22.10;59.60
10062;DHT22;5070;52.382;5.270;2023-06-05T03:36:40;22.10;59.60
10062;DHT22;5070;52.382;5.270;2023-06-05T03:39:11;22.10;59.60
10062;DHT22;5070;52.382;5.270;2023-06-05T03:41:41;22.10;59.60
10062;DHT22;5070;52.382;5.270;2023-06-05T03:44:09;22.10;59.60
10062;DHT22;5070;52.382;5.270;2023-06-05T03:46:39;22.10;59.60
10062;DHT22;5070;52.382;5.270;2023-06-05T03:49:08;22.10;59.60
10062;DHT22;5070;52.382;5.270;2023-06-05T03:51:38;22.10;60.10
10062;DHT22;5070;52.382;5.270;2023-06-05T03:54:08;22.00;59.60
10062;DHT22;5070;52.382;5.270;2023-06-05T03:56:55;22.10;59.60
10062;DHT22;5070;52.382;5.270;2023-06-05T03:59:24;22.10;59.50
10062;DHT22;5070;52.382;5.270;2023-06-05T04:02:00;22.10;59.50
10062;DHT22;5070;52.382;5.270;2023-06-05T04:04:35;22.00;59.50
10062;DHT22;5070;52.382;5.270;2023-06-05T04:07:05;22.00;59.50
10062;DHT22;5070;52.382;5.270;2023-06-05T04:09:35;22.00;59.60
10062;DHT22;5070;52.382;5.270;2023-06-05T04:12:04;22.00;59.50
10062;DHT22;5070;52.382;5.270;2023-06-05T04:14:34;22.00;59.50
10062;DHT22;5070;52.382;5.270;2023-06-05T04:17:03;22.00;59.60
10062;DHT22;5070;52.382;5.270;2023-06-05T04:19:32;22.00;59.50
10062;DHT22;5070;52.382;5.270;2023-06-05T04:22:01;22.10;59.60
10062;DHT22;5070;52.382;5.270;2023-06-05T04:24:32;22.00;59.50
10062;DHT22;5070;52.382;5.270;2023-06-05T04:27:01;22.00;59.50
10062;DHT22;5070;52.382;5.270;2023-06-05T04:29:31;22.00;59.50
10062;DHT22;5070;52.382;5.270;2023-06-05T04:32:01;22.00;59.70
10062;DHT22;5070;52.382;5.270;2023-06-05T04:34:32;22.00;59.60
10062;DHT22;5070;52.382;5.270;2023-06-05T04:37:03;22.10;59.80
10062;DHT22;5070;52.382;5.270;2023-06-05T04:39:32;22.10;59.60
10062;DHT22;5070;52.382;5.270;2023-06-05T04:42:01;22.00;59.90
10062;DHT22;5070;52.382;5.270;2023-06-05T04:44:42;22.10;59.80
10062;DHT22;5070;52.382;5.270;2023-06-05T04:47:10;22.10;59.80
10062;DHT22;5070;52.382;5.270;2023-06-05T04:49:38;22.10;59.80
10062;DHT22;5070;52.382;5.270;2023-06-05T04:52:08;22.10;59.90
10062;DHT22;5070;52.382;5.270;2023-06-05T04:54:36;22.10;60.10
10062;DHT22;5070;52.382;5.270;2023-06-05T04:57:06;22.10;59.80
10062;DHT22;5070;52.382;5.270;2023-06-05T04:59:37;22.10;59.60
10062;DHT22;5070;52.382;5.270;2023-06-05T05:02:08;22.10;59.60
10062;DHT22;5070;52.382;5.270;2023-06-05T05:04:39;22.10;59.60
10062;DHT22;5070;52.382;5.270;2023-06-05T05:07:12;22.10;59.50
10062;DHT22;5070;52.382;5.270;2023-06-05T05:09:43;22.10;60.10
10062;DHT22;5070;52.382;5.270;2023-06-05T05:12:13;22.10;59.50
10062;DHT22;5070;52.382;5.270;2023-06-05T05:14:41;22.10;59.50
10062;DHT22;5070;52.382;5.270;2023-06-05T05:17:11;22.10;59.50
10062;DHT22;5070;52.382;5.270;2023-06-05T05:19:41;22.10;59.50
10062;DHT22;5070;52.382;5.270;2023-06-05T05:22:09;22.10;59.50
10062;DHT22;5070;52.382;5.270;2023-06-05T05:24:39;22.20;59.50
10062;DHT22;5070;52.382;5.270;2023-06-05T05:27:08;22.10;59.30
10062;DHT22;5070;52.382;5.270;2023-06-05T05:29:37;22.10;59.40
10062;DHT22;5070;52.382;5.270;2023-06-05T05:32:05;22.10;59.40
10062;DHT22;5070;52.382;5.270;2023-06-05T05:34:33;22.10;59.40
10062;DHT22;5070;52.382;5.270;2023-06-05T05:37:01;22.10;59.40
10062;DHT22;5070;52.382;5.270;2023-06-05T05:39:30;22.20;59.40
10062;DHT22;5070;52.382;5.270;2023-06-05T05:42:00;22.10;59.30
10062;DHT22;5070;52.382;5.270;2023-06-05T05:44:29;22.10;59.40
10062;DHT22;5070;52.382;5.270;2023-06-05T05:46:57;22.20;59.50
10062;DHT22;5070;52.382;5.270;2023-06-05T05:49:25;22.20;59.60
10062;DHT22;5070;52.382;5.270;2023-06-05T05:51:53;22.20;59.40
10062;DHT22;5070;52.382;5.270;2023-06-05T05:54:23;22.20;59.40
10062;DHT22;5070;52.382;5.270;2023-06-05T05:56:54;22.20;59.30
10062;DHT22;5070;52.382;5.270;2023-06-05T05:59:24;22.20;59.40
10062;DHT22;5070;52.382;5.270;2023-06-05T06:01:54;22.20;59.50
10062;DHT22;5070;52.382;5.270;2023-06-05T06:04:25;22.20;59.40
10062;DHT22;5070;52.382;5.270;2023-06-05T06:06:53;22.20;59.40
10062;DHT22;5070;52.382;5.270;2023-06-05T06:09:23;22.20;59.50
10062;DHT22;5070;52.382;5.270;2023-06-05T06:11:52;22.20;59.50
10062;DHT22;5070;52.382;5.270;2023-06-05T06:14:23;22.20;59.60
10062;DHT22;5070;52.382;5.270;2023-06-05T06:16:51;22.20;59.40
10062;DHT22;5070;52.382;5.270;2023-06-05T06:19:21;22.20;59.40
10062;DHT22;5070;52.382;5.270;2023-06-05T06:21:52;22.20;59.40
10062;DHT22;5070;52.382;5.270;2023-06-05T06:24:20;22.20;59.30
10062;DHT22;5070;52.382;5.270;2023-06-05T06:26:49;22.20;59.20
10062;DHT22;5070;52.382;5.270;2023-06-05T06:29:19;22.20;59.50
10062;DHT22;5070;52.382;5.270;2023-06-05T06:31:49;22.20;59.40
10062;DHT22;5070;52.382;5.270;2023-06-05T06:34:18;22.30;60.90
10062;DHT22;5070;52.382;5.270;2023-06-05T06:36:48;22.30;61.30
10062;DHT22;5070;52.382;5.270;2023-06-05T06:39:17;22.30;61.70
10062;DHT22;5070;52.382;5.270;2023-06-05T06:41:45;22.30;61.70
10062;DHT22;5070;52.382;5.270;2023-06-05T06:44:13;22.30;62.30
10062;DHT22;5070;52.382;5.270;2023-06-05T06:46:41;22.30;62.20
10062;DHT22;5070;52.382;5.270;2023-06-05T06:49:13;22.30;62.90
10062;DHT22;5070;52.382;5.270;2023-06-05T06:51:41;22.30;63.20
10062;DHT22;5070;52.382;5.270;2023-06-05T06:54:09;22.30;63.30
10062;DHT22;5070;52.382;5.270;2023-06-05T06:56:37;22.30;63.50
10062;DHT22;5070;52.382;5.270;2023-06-05T06:59:11;22.30;63.70
10062;DHT22;5070;52.382;5.270;2023-06-05T07:01:42;22.40;63.80
10062;DHT22;5070;52.382;5.270;2023-06-05T07:04:12;22.40;63.50
10062;DHT22;5070;52.382;5.270;2023-06-05T07:06:43;22.40;63.40
10062;DHT22;5070;52.382;5.270;2023-06-05T07:09:12;22.40;64.10
10062;DHT22;5070;52.382;5.270;2023-06-05T07:11:40;22.40;64.10
10062;DHT22;5070;52.382;5.270;2023-06-05T07:14:08;22.40;64.00
10062;DHT22;5070;52.382;5.270;2023-06-05T07:16:36;22.40;63.80
10062;DHT22;5070;52.382;5.270;2023-06-05T07:19:04;22.40;63.90
10062;DHT22;5070;52.382;5.270;2023-06-05T07:21:34;22.40;63.90
10062;DHT22;5070;52.382;5.270;2023-06-05T07:24:05;22.40;63.80
10062;DHT22;5070;52.382;5.270;2023-06-05T07:26:35;22.40;63.90
10062;DHT22;5070;52.382;5.270;2023-06-05T07:29:02;22.40;63.60
10062;DHT22;5070;52.382;5.270;2023-06-05T07:31:30;22.50;63.60
10062;DHT22;5070;52.382;5.270;2023-06-05T07:33:58;22.50;63.60
10062;DHT22;5070;52.382;5.270;2023-06-05T07:36:26;22.50;63.90
10062;DHT22;5070;52.382;5.270;2023-06-05T07:38:56;22.50;64.00
10062;DHT22;5070;52.382;5.270;2023-06-05T07:41:24;22.50;64.00
10062;DHT22;5070;52.382;5.270;2023-06-05T07:43:52;22.50;64.00
10062;DHT22;5070;52.382;5.270;2023-06-05T07:46:20;22.50;64.20
10062;DHT22;5070;52.382;5.270;2023-06-05T07:48:48;22.50;63.60
10062;DHT22;5070;52.382;5.270;2023-06-05T07:51:16;22.50;64.70
10062;DHT22;5070;52.382;5.270;2023-06-05T07:53:47;22.50;64.50
10062;DHT22;5070;52.382;5.270;2023-06-05T07:56:17;22.60;64.80
10062;DHT22;5070;52.382;5.270;2023-06-05T07:58:45;22.60;64.10
10062;DHT22;5070;52.382;5.270;2023-06-05T08:01:13;22.60;64.40
10062;DHT22;5070;52.382;5.270;2023-06-05T08:03:42;22.60;64.30
10062;DHT22;5070;52.382;5.270;2023-06-05T08:06:14;22.60;64.60
10062;DHT22;5070;52.382;5.270;2023-06-05T08:08:42;22.60;65.00
10062;DHT22;5070;52.382;5.270;2023-06-05T08:11:10;22.60;64.90
10062;DHT22;5070;52.382;5.270;2023-06-05T08:13:40;22.60;63.90
10062;DHT22;5070;52.382;5.270;2023-06-05T08:16:08;22.70;64.00
10062;DHT22;5070;52.382;5.270;2023-06-05T08:18:36;22.70;63.50
10062;DHT22;5070;52.382;5.270;2023-06-05T08:21:04;22.70;63.80
10062;DHT22;5070;52.382;5.270;2023-06-05T08:23:33;22.70;63.90
10062;DHT22;5070;52.382;5.270;2023-06-05T08:26:01;22.70;64.50
10062;DHT22;5070;52.382;5.270;2023-06-05T08:28:38;22.70;64.50
10062;DHT22;5070;52.382;5.270;2023-06-05T08:31:10;22.80;64.60
10062;DHT22;5070;52.382;5.270;2023-06-05T08:33:41;22.80;64.60
10062;DHT22;5070;52.382;5.270;2023-06-05T08:36:09;22.80;65.30
10062;DHT22;5070;52.382;5.270;2023-06-05T08:38:37;22.80;64.60
10062;DHT22;5070;52.382;5.270;2023-06-05T08:41:08;22.80;64.40
10062;DHT22;5070;52.382;5.270;2023-06-05T08:43:38;22.80;65.60
10062;DHT22;5070;52.382;5.270;2023-06-05T08:46:10;22.80;65.80
10062;DHT22;5070;52.382;5.270;2023-06-05T08:48:42;22.90;66.10
10062;DHT22;5070;52.382;5.270;2023-06-05T08:51:10;22.90;66.50
10062;DHT22;5070;52.382;5.270;2023-06-05T08:53:41;22.90;66.30
10062;DHT22;5070;52.382;5.270;2023-06-05T08:56:11;22.90;66.30
10062;DHT22;5070;52.382;5.270;2023-06-05T08:58:39;22.90;66.00
10062;DHT22;5070;52.382;5.270;2023-06-05T09:01:10;22.90;66.10
10062;DHT22;5070;52.382;5.270;2023-06-05T09:03:40;22.90;67.30
10062;DHT22;5070;52.382;5.270;2023-06-05T09:06:09;22.90;66.80
10062;DHT22;5070;52.382;5.270;2023-06-05T09:08:38;22.90;67.90
10062;DHT22;5070;52.382;5.270;2023-06-05T09:11:22;23.00;67.80
10062;DHT22;5070;52.382;5.270;2023-06-05T09:13:54;23.00;68.10
10062;DHT22;5070;52.382;5.270;2023-06-05T09:16:34;23.00;68.30
10062;DHT22;5070;52.382;5.270;2023-06-05T09:19:02;23.00;68.40
10062;DHT22;5070;52.382;5.270;2023-06-05T09:21:31;23.00;69.90
10062;DHT22;5070;52.382;5.270;2023-06-05T09:24:11;23.00;68.90
10062;DHT22;5070;52.382;5.270;2023-06-05T09:26:48;23.00;68.80
10062;DHT22;5070;52.382;5.270;2023-06-05T09:29:26;23.00;69.90
10062;DHT22;5070;52.382;5.270;2023-06-05T09:31:57;23.00;70.20
10062;DHT22;5070;52.382;5.270;2023-06-05T09:34:28;23.00;69.90
10062;DHT22;5070;52.382;5.270;2023-06-05T09:36:58;23.10;70.50
10062;DHT22;5070;52.382;5.270;2023-06-05T09:39:29;23.10;68.90
10062;DHT22;5070;52.382;5.270;2023-06-05T09:41:58;23.10;69.70
10062;DHT22;5070;52.382;5.270;2023-06-05T09:44:27;23.10;70.70
10062;DHT22;5070;52.382;5.270;2023-06-05T09:46:58;23.10;71.20
10062;DHT22;5070;52.382;5.270;2023-06-05T09:49:30;23.10;72.10
10062;DHT22;5070;52.382;5.270;2023-06-05T09:52:02;23.10;71.60
10062;DHT22;5070;52.382;5.270;2023-06-05T09:54:30;23.10;69.90
10062;DHT22;5070;52.382;5.270;2023-06-05T09:57:00;23.10;70.60
10062;DHT22;5070;52.382;5.270;2023-06-05T09:59:29;23.10;71.30
10062;DHT22;5070;52.382;5.270;2023-06-05T10:02:02;23.10;71.90
10062;DHT22;5070;52.382;5.270;2023-06-05T10:04:37;23.10;69.90
10062;DHT22;5070;52.382;5.270;2023-06-05T10:07:10;23.10;69.60
10062;DHT22;5070;52.382;5.270;2023-06-05T10:09:39;23.20;68.20
10062;DHT22;5070;52.382;5.270;2023-06-05T10:12:10;23.20;68.80
10062;DHT22;5070;52.382;5.270;2023-06-05T10:14:41;23.20;70.80
10062;DHT22;5070;52.382;5.270;2023-06-05T10:17:12;23.20;70.90
10062;DHT22;5070;52.382;5.270;2023-06-05T10:19:41;23.20;72.10
10062;DHT22;5070;52.382;5.270;2023-06-05T10:22:10;23.20;72.60
10062;DHT22;5070;52.382;5.270;2023-06-05T10:24:51;23.20;73.80
10062;DHT22;5070;52.382;5.270;2023-06-05T10:30:25;23.20;72.90
10062;DHT22;5070;52.382;5.270;2023-06-05T10:33:17;23.20;73.00
10062;DHT22;5070;52.382;5.270;2023-06-05T10:35:50;23.20;74.40
10062;DHT22;5070;52.382;5.270;2023-06-05T10:38:23;23.20;72.80
10062;DHT22;5070;52.382;5.270;2023-06-05T10:40:53;23.20;72.70
10062;DHT22;5070;52.382;5.270;2023-06-05T10:43:30;23.20;67.10
10062;DHT22;5070;52.382;5.270;2023-06-05T10:46:02;23.20;62.00
10062;DHT22;5070;52.382;5.270;2023-06-05T10:51:49;23.10;63.00
10062;DHT22;5070;52.382;5.270;2023-06-05T10:54:53;23.10;64.40
10062;DHT22;5070;52.382;5.270;2023-06-05T10:57:21;23.10;65.20
10062;DHT22;5070;52.382;5.270;2023-06-05T11:00:05;23.20;65.40
10062;DHT22;5070;52.382;5.270;2023-06-05T11:02:46;23.20;65.50
10062;DHT22;5070;52.382;5.270;2023-06-05T11:05:14;23.20;65.80
10062;DHT22;5070;52.382;5.270;2023-06-05T11:07:47;23.20;65.50
10062;DHT22;5070;52.382;5.270;2023-06-05T11:10:17;23.20;66.10
10062;DHT22;5070;52.382;5.270;2023-06-05T11:12:58;23.20;66.00
10062;DHT22;5070;52.382;5.270;2023-06-05T11:15:42;23.20;65.60
10062;DHT22;5070;52.382;5.270;2023-06-05T11:18:29;23.20;65.70
10062;DHT22;5070;52.382;5.270;2023-06-05T11:20:58;23.20;65.50
10062;DHT22;5070;52.382;5.270;2023-06-05T11:23:28;23.20;65.80
10062;DHT22;5070;52.382;5.270;2023-06-05T11:28:47;23.20;65.80
10062;DHT22;5070;52.382;5.270;2023-06-05T11:31:27;23.20;65.70
10062;DHT22;5070;52.382;5.270;2023-06-05T11:33:56;23.20;66.10
10062;DHT22;5070;52.382;5.270;2023-06-05T11:36:25;23.20;67.60
10062;DHT22;5070;52.382;5.270;2023-06-05T11:38:55;23.20;68.10
10062;DHT22;5070;52.382;5.270;2023-06-05T11:41:23;23.30;68.70
10062;DHT22;5070;52.382;5.270;2023-06-05T11:43:52;23.30;68.70
10062;DHT22;5070;52.382;5.270;2023-06-05T11:46:35;23.30;68.70
10062;DHT22;5070;52.382;5.270;2023-06-05T11:49:08;23.30;68.80
10062;DHT22;5070;52.382;5.270;2023-06-05T11:51:37;23.30;68.40
10062;DHT22;5070;52.382;5.270;2023-06-05T11:54:24;23.30;68.80
10062;DHT22;5070;52.382;5.270;2023-06-05T11:56:58;23.30;68.30
10062;DHT22;5070;52.382;5.270;2023-06-05T11:59:31;23.30;68.10
10062;DHT22;5070;52.382;5.270;2023-06-05T12:02:03;23.30;68.00
10062;DHT22;5070;52.382;5.270;2023-06-05T12:04:31;23.30;68.20
10062;DHT22;5070;52.382;5.270;2023-06-05T12:06:59;23.40;68.30
10062;DHT22;5070;52.382;5.270;2023-06-05T12:09:31;23.40;66.90
10062;DHT22;5070;52.382;5.270;2023-06-05T12:12:09;23.30;63.90
10062;DHT22;5070;52.382;5.270;2023-06-05T12:14:37;23.30;64.70
10062;DHT22;5070;52.382;5.270;2023-06-05T12:17:09;23.30;62.10
10062;DHT22;5070;52.382;5.270;2023-06-05T12:19:37;23.30;62.50
10062;DHT22;5070;52.382;5.270;2023-06-05T12:22:07;23.30;63.20
10062;DHT22;5070;52.382;5.270;2023-06-05T12:24:37;23.30;63.60
10062;DHT22;5070;52.382;5.270;2023-06-05T12:27:08;23.30;61.00
10062;DHT22;5070;52.382;5.270;2023-06-05T12:29:37;23.20;60.40
10062;DHT22;5070;52.382;5.270;2023-06-05T12:32:20;23.30;59.70
10062;DHT22;5070;52.382;5.270;2023-06-05T12:34:49;23.20;59.40
10062;DHT22;5070;52.382;5.270;2023-06-05T12:37:31;23.20;59.50
10062;DHT22;5070;52.382;5.270;2023-06-05T12:40:04;23.20;58.30
10062;DHT22;5070;52.382;5.270;2023-06-05T12:42:36;23.20;58.00
10062;DHT22;5070;52.382;5.270;2023-06-05T12:45:09;23.20;59.00
10062;DHT22;5070;52.382;5.270;2023-06-05T12:47:39;23.20;60.60
10062;DHT22;5070;52.382;5.270;2023-06-05T12:50:09;23.20;60.40
10062;DHT22;5070;52.382;5.270;2023-06-05T12:52:39;23.20;58.80
10062;DHT22;5070;52.382;5.270;2023-06-05T12:55:09;23.20;59.30
10062;DHT22;5070;52.382;5.270;2023-06-05T12:57:38;23.20;58.40
10062;DHT22;5070;52.382;5.270;2023-06-05T13:00:07;23.20;59.00
10062;DHT22;5070;52.382;5.270;2023-06-05T13:02:41;23.20;59.70
10062;DHT22;5070;52.382;5.270;2023-06-05T13:05:11;23.20;59.20
10062;DHT22;5070;52.382;5.270;2023-06-05T13:07:39;23.20;59.10
10062;DHT22;5070;52.382;5.270;2023-06-05T13:10:10;23.20;58.80
10062;DHT22;5070;52.382;5.270;2023-06-05T13:12:38;23.20;59.60
10062;DHT22;5070;52.382;5.270;2023-06-05T13:15:07;23.20;59.20
10062;DHT22;5070;52.382;5.270;2023-06-05T13:17:36;23.20;59.60
10062;DHT22;5070;52.382;5.270;2023-06-05T13:20:06;23.20;58.90
10062;DHT22;5070;52.382;5.270;2023-06-05T13:22:35;23.20;58.90
10062;DHT22;5070;52.382;5.270;2023-06-05T13:25:04;23.20;58.20
10062;DHT22;5070;52.382;5.270;2023-06-05T13:27:34;23.20;59.00
10062;DHT22;5070;52.382;5.270;2023-06-05T13:30:06;23.10;59.40
10062;DHT22;5070;52.382;5.270;2023-06-05T13:32:35;23.20;59.10
10062;DHT22;5070;52.382;5.270;2023-06-05T13:35:04;23.10;58.70
10062;DHT22;5070;52.382;5.270;2023-06-05T13:37:33;23.10;58.60
10062;DHT22;5070;52.382;5.270;2023-06-05T13:40:04;23.10;58.50
10062;DHT22;5070;52.382;5.270;2023-06-05T13:42:34;23.10;58.40
10062;DHT22;5070;52.382;5.270;2023-06-05T13:45:04;23.10;58.90
10062;DHT22;5070;52.382;5.270;2023-06-05T13:47:32;23.10;58.50
10062;DHT22;5070;52.382;5.270;2023-06-05T13:50:00;23.10;58.40
10062;DHT22;5070;52.382;5.270;2023-06-05T13:52:28;23.10;58.80
10062;DHT22;5070;52.382;5.270;2023-06-05T13:54:57;23.10;58.60
10062;DHT22;5070;52.382;5.270;2023-06-05T13:57:24;23.10;58.40
10062;DHT22;5070;52.382;5.270;2023-06-05T13:59:55;23.10;58.60
10062;DHT22;5070;52.382;5.270;2023-06-05T14:02:23;23.10;59.00
10062;DHT22;5070;52.382;5.270;2023-06-05T14:04:51;23.10;59.30
10062;DHT22;5070;52.382;5.270;2023-06-05T14:07:19;23.10;58.90
10062;DHT22;5070;52.382;5.270;2023-06-05T14:09:48;23.10;59.10
10062;DHT22;5070;52.382;5.270;2023-06-05T14:12:16;23.10;59.00
10062;DHT22;5070;52.382;5.270;2023-06-05T14:14:44;23.10;59.20
10062;DHT22;5070;52.382;5.270;2023-06-05T14:17:14;23.10;59.30
10062;DHT22;5070;52.382;5.270;2023-06-05T14:19:42;23.10;59.90
10062;DHT22;5070;52.382;5.270;2023-06-05T14:22:10;23.10;59.40
10062;DHT22;5070;52.382;5.270;2023-06-05T14:24:39;23.10;59.30
10062;DHT22;5070;52.382;5.270;2023-06-05T14:27:07;23.10;59.10
10062;DHT22;5070;52.382;5.270;2023-06-05T14:29:36;23.10;59.20
10062;DHT22;5070;52.382;5.270;2023-06-05T14:32:05;23.10;59.40
10062;DHT22;5070;52.382;5.270;2023-06-05T14:34:34;23.10;59.40
10062;DHT22;5070;52.382;5.270;2023-06-05T14:37:05;23.10;58.90
10062;DHT22;5070;52.382;5.270;2023-06-05T14:39:34;23.10;58.80
10062;DHT22;5070;52.382;5.270;2023-06-05T14:42:02;23.10;59.30
10062;DHT22;5070;52.382;5.270;2023-06-05T14:44:31;23.10;59.40
10062;DHT22;5070;52.382;5.270;2023-06-05T14:46:59;23.10;59.40
10062;DHT22;5070;52.382;5.270;2023-06-05T14:49:29;23.10;59.60
10062;DHT22;5070;52.382;5.270;2023-06-05T14:52:00;23.10;60.80
10062;DHT22;5070;52.382;5.270;2023-06-05T14:54:28;23.10;61.30
10062;DHT22;5070;52.382;5.270;2023-06-05T14:56:56;23.10;61.60
10062;DHT22;5070;52.382;5.270;2023-06-05T14:59:24;23.20;61.80
10062;DHT22;5070;52.382;5.270;2023-06-05T15:01:53;23.20;60.90
10062;DHT22;5070;52.382;5.270;2023-06-05T15:04:21;23.20;60.20
10062;DHT22;5070;52.382;5.270;2023-06-05T15:06:50;23.20;60.00
10062;DHT22;5070;52.382;5.270;2023-06-05T15:09:21;23.20;59.70
10062;DHT22;5070;52.382;5.270;2023-06-05T15:11:49;23.20;59.50
10062;DHT22;5070;52.382;5.270;2023-06-05T15:14:21;23.20;59.70
10062;DHT22;5070;52.382;5.270;2023-06-05T15:16:50;23.20;60.60
10062;DHT22;5070;52.382;5.270;2023-06-05T15:19:18;23.20;61.50
10062;DHT22;5070;52.382;5.270;2023-06-05T15:21:46;23.20;61.50
10062;DHT22;5070;52.382;5.270;2023-06-05T15:24:14;23.20;61.80
10062;DHT22;5070;52.382;5.270;2023-06-05T15:26:44;23.20;61.50
10062;DHT22;5070;52.382;5.270;2023-06-05T15:29:12;23.20;61.30
10062;DHT22;5070;52.382;5.270;2023-06-05T15:31:40;23.30;62.30
10062;DHT22;5070;52.382;5.270;2023-06-05T15:34:08;23.30;62.50
10062;DHT22;5070;52.382;5.270;2023-06-05T15:36:36;23.30;62.50
10062;DHT22;5070;52.382;5.270;2023-06-05T15:39:04;23.30;62.80
10062;DHT22;5070;52.382;5.270;2023-06-05T15:41:33;23.30;63.40
10062;DHT22;5070;52.382;5.270;2023-06-05T15:44:03;23.30;62.80
10062;DHT22;5070;52.382;5.270;2023-06-05T15:46:31;23.30;63.10
10062;DHT22;5070;52.382;5.270;2023-06-05T15:49:02;23.30;62.80
10062;DHT22;5070;52.382;5.270;2023-06-05T15:51:30;23.40;63.60
10062;DHT22;5070;52.382;5.270;2023-06-05T15:53:58;23.40;63.50
10062;DHT22;5070;52.382;5.270;2023-06-05T15:57:00;23.40;62.30
10062;DHT22;5070;52.382;5.270;2023-06-05T15:59:30;23.40;61.90
10062;DHT22;5070;52.382;5.270;2023-06-05T16:01:59;23.40;62.50
10062;DHT22;5070;52.382;5.270;2023-06-05T16:04:27;23.40;61.90
10062;DHT22;5070;52.382;5.270;2023-06-05T16:06:56;23.40;61.80
10062;DHT22;5070;52.382;5.270;2023-06-05T16:09:24;23.40;61.80
10062;DHT22;5070;52.382;5.270;2023-06-05T16:11:52;23.40;61.80
10062;DHT22;5070;52.382;5.270;2023-06-05T16:14:20;23.50;62.10
10062;DHT22;5070;52.382;5.270;2023-06-05T16:16:49;23.50;62.00
10062;DHT22;5070;52.382;5.270;2023-06-05T16:19:17;23.50;62.00
10062;DHT22;5070;52.382;5.270;2023-06-05T16:21:46;23.50;62.10
10062;DHT22;5070;52.382;5.270;2023-06-05T16:24:14;23.50;62.10
10062;DHT22;5070;52.382;5.270;2023-06-05T16:26:42;23.50;62.20
10062;DHT22;5070;52.382;5.270;2023-06-05T16:29:13;23.50;62.30
10062;DHT22;5070;52.382;5.270;2023-06-05T16:31:41;23.60;62.50
10062;DHT22;5070;52.382;5.270;2023-06-05T16:34:12;23.50;62.40
10062;DHT22;5070;52.382;5.270;2023-06-05T16:36:42;23.50;62.50